Perdido, Alabama
Current Conditions -  °F | °C
As of 4:53 PM on Monday 24 Nov 2014 (Local Time) from KBFM Reporting Station
Clear Clear  
Wind Chill: 69°   Ceiling: Unl
Heat Index: 69°   Visibility: 10mi
Dew Point: 53°   Wind: 9mph
Humidity: 57%   Direction: 320°NW
Pressure: 29.9"   Gusts: NA
Location:  31.01°N, 87.63°W
Report Text: KBFM 242253Z 32008KT 10SM CLR 21/12 A2990 RMK AO2 SLP123 T02060117
Loading
Personal Weather Stations






























Interactive Weather Map New forecast layout! Learn more

10-Day Weather Forecast

Advertisements
Track Severe Weather on mobile